Nieuwerkerken, Belgium
Current Conditions -  °F | °C
As of 11:25 AM on Sunday 21 Dec 2014 (Local Time) from EBDT Reporting Station
Overcast Overcast  
Wind Chill: 39°   Ceiling: 3100
Heat Index: 43°   Visibility: 6mi
Dew Point: 39°   Wind: 7mph
Humidity: 87%   Direction: 210°SSW
Pressure: 30.42"   Gusts: NA
Location:  50.86°N, 5.19°E
Report Text: EBDT 211025Z AUTO 21006KT 9999 BKN031/// OVC046/// 06/04 Q1030 BLU
Loading
Personal Weather Stations






























Interactive Weather Map New forecast layout! Learn more

10-Day Weather Forecast

Advertisements
Track Severe Weather on mobile